createdAt,value
2023-01-12T00:00:55.414Z,98.74
2023-01-12T00:01:55.470Z,98.84
2023-01-12T00:02:55.354Z,99.19
2023-01-12T00:03:55.414Z,98.94
2023-01-12T00:04:55.349Z,98.53
2023-01-12T00:05:55.313Z,98.74
2023-01-12T00:06:55.319Z,98.94
2023-01-12T00:07:55.387Z,98.94
2023-01-12T00:08:55.258Z,99.30
2023-01-12T00:09:55.309Z,99.15
2023-01-12T00:10:55.253Z,98.84
2023-01-12T00:11:55.277Z,98.63
2023-01-12T00:12:55.236Z,98.53
2023-01-12T00:13:55.329Z,98.53
2023-01-12T00:14:55.205Z,98.63
2023-01-12T00:15:55.214Z,98.94
2023-01-12T00:16:55.180Z,98.94
2023-01-12T00:17:55.177Z,98.53
2023-01-12T00:18:55.113Z,98.53
2023-01-12T00:19:55.298Z,98.74
2023-01-12T00:20:55.159Z,98.84
2023-01-12T00:21:55.120Z,98.74
2023-01-12T00:22:55.100Z,98.74
2023-01-12T00:23:55.080Z,98.33
2023-01-12T00:24:55.064Z,98.02
2023-01-12T00:25:55.205Z,97.91
2023-01-12T00:26:55.023Z,97.56
2023-01-12T00:27:55.049Z,97.81
2023-01-12T00:28:55.031Z,97.56
2023-01-12T00:29:54.992Z,97.25
2023-01-12T00:30:55.016Z,97.36
2023-01-12T00:31:55.012Z,97.71
2023-01-12T00:32:54.922Z,97.56
2023-01-12T00:33:54.984Z,97.45
2023-01-12T00:34:54.941Z,97.05
2023-01-12T00:35:54.915Z,97.05
2023-01-12T00:36:54.891Z,96.53
2023-01-12T00:37:55.039Z,96.43
2023-01-12T00:38:54.851Z,96.73
2023-01-12T00:40:01.934Z,96.73
2023-01-12T00:40:55.863Z,97.25
2023-01-12T00:41:54.837Z,97.66
2023-01-12T00:42:54.823Z,98.18
2023-01-12T00:43:54.844Z,98.69
2023-01-12T00:44:54.779Z,99.46
2023-01-12T00:45:54.871Z,99.97
2023-01-12T00:46:54.750Z,99.87
2023-01-12T00:47:54.805Z,99.77
2023-01-12T00:48:54.764Z,99.87
2023-01-12T00:49:54.744Z,99.87
2023-01-12T00:50:54.719Z,99.99
2023-01-12T00:51:54.695Z,99.99
2023-01-12T00:52:54.715Z,99.87
2023-01-12T00:53:54.669Z,99.97
2023-01-12T00:54:54.679Z,99.77
2023-01-12T00:55:54.647Z,99.87
2023-01-12T00:56:54.641Z,99.87
2023-01-12T00:57:54.624Z,99.41
2023-01-12T00:58:54.628Z,99.56
2023-01-12T00:59:54.607Z,99.77
2023-01-12T01:00:54.668Z,99.46
2023-01-12T01:03:05.042Z,98.90
2023-01-12T01:04:04.969Z,99.21
2023-01-12T01:05:04.995Z,99.21
2023-01-12T01:06:04.971Z,98.90
2023-01-12T01:07:04.931Z,99.10
2023-01-12T01:08:05.037Z,98.59
2023-01-12T01:09:04.937Z,98.69
2023-01-12T01:10:04.878Z,97.97
2023-01-12T01:11:04.903Z,97.66
2023-01-12T01:12:04.850Z,97.31
2023-01-12T01:13:04.889Z,97.87
2023-01-12T01:14:04.856Z,97.77
2023-01-12T01:15:07.565Z,96.80
2023-01-12T01:16:04.810Z,96.90
2023-01-12T01:17:04.840Z,96.08
2023-01-12T01:18:04.814Z,96.18
2023-01-12T01:19:04.771Z,95.97
2023-01-12T01:20:04.796Z,95.87
2023-01-12T01:21:04.752Z,95.67
2023-01-12T01:22:04.725Z,95.46
2023-01-12T01:23:04.751Z,95.46
2023-01-12T01:24:04.683Z,94.80
2023-01-12T01:25:04.725Z,94.59
2023-01-12T01:26:04.791Z,94.18
2023-01-12T01:27:04.688Z,93.46
2023-01-12T01:28:04.660Z,93.26
2023-01-12T01:29:04.665Z,93.12
2023-01-12T01:30:04.629Z,93.16
2023-01-12T01:31:04.692Z,93.67
2023-01-12T01:32:04.731Z,93.77
2023-01-12T01:33:04.591Z,93.36
2023-01-12T01:34:04.550Z,93.46
2023-01-12T01:35:04.628Z,93.26
2023-01-12T01:36:04.535Z,93.05
2023-01-12T01:37:04.589Z,93.36
2023-01-12T01:38:04.565Z,93.26
2023-01-12T01:39:04.527Z,93.46
2023-01-12T01:40:04.493Z,93.77
2023-01-12T01:41:04.487Z,93.98
2023-01-12T01:42:04.451Z,93.87
2023-01-12T01:43:04.495Z,94.18
2023-01-12T01:44:04.457Z,94.59
2023-01-12T01:45:04.468Z,94.70
2023-01-12T01:46:04.426Z,94.59
2023-01-12T01:47:04.427Z,94.18
2023-01-12T01:48:04.363Z,93.87
2023-01-12T01:49:04.407Z,94.29
2023-01-12T01:50:04.488Z,94.80
2023-01-12T01:51:04.369Z,94.95
2023-01-12T01:52:04.356Z,95.25
2023-01-12T01:53:04.347Z,94.70
2023-01-12T01:54:04.293Z,94.59
2023-01-12T01:55:04.332Z,94.49
2023-01-12T01:56:04.337Z,93.98
2023-01-12T01:57:04.311Z,94.29
2023-01-12T01:58:04.261Z,94.70
2023-01-12T01:59:04.275Z,94.29
2023-01-12T02:00:04.236Z,94.59
2023-01-12T02:01:04.276Z,95.01
2023-01-12T02:02:04.323Z,94.90
2023-01-12T02:03:04.271Z,95.01
2023-01-12T02:04:04.175Z,95.10
2023-01-12T02:05:04.198Z,95.10
2023-01-12T02:06:04.183Z,95.21
2023-01-12T02:07:04.148Z,95.01
2023-01-12T02:08:04.257Z,95.31
2023-01-12T02:09:04.128Z,96.18
2023-01-12T02:10:04.109Z,96.80
2023-01-12T02:11:04.176Z,97.31
2023-01-12T02:12:04.065Z,97.72
2023-01-12T02:13:04.116Z,97.82
2023-01-12T02:14:04.168Z,98.07
2023-01-12T02:15:04.060Z,98.18
2023-01-12T02:16:04.071Z,98.18
2023-01-12T02:17:04.011Z,98.18
2023-01-12T02:18:04.002Z,98.28
2023-01-12T02:19:04.015Z,98.38
2023-01-12T02:20:04.009Z,98.49
2023-01-12T02:21:03.950Z,98.79
2023-01-12T02:22:03.929Z,99.00
2023-01-12T02:23:03.957Z,99.31
2023-01-12T02:24:03.879Z,99.21
2023-01-12T02:25:03.935Z,99.31
2023-01-12T02:26:03.935Z,99.72
2023-01-12T02:27:03.886Z,99.82
2023-01-12T02:28:03.863Z,99.62
2023-01-12T02:29:03.851Z,99.51
2023-01-12T02:30:03.812Z,99.51
2023-01-12T02:31:03.922Z,99.62
2023-01-12T02:32:03.821Z,99.72
2023-01-12T02:33:04.789Z,99.72
2023-01-12T02:34:03.801Z,99.41
2023-01-12T02:35:03.785Z,99.51
2023-01-12T02:36:03.751Z,99.62
2023-01-12T02:37:03.785Z,99.72
2023-01-12T02:38:03.782Z,99.82
2023-01-12T02:39:03.739Z,99.93
2023-01-12T02:40:03.740Z,99.99
2023-01-12T02:41:03.697Z,99.99
2023-01-12T02:42:03.661Z,99.99
2023-01-12T02:43:03.729Z,99.99
2023-01-12T02:44:03.662Z,99.99
2023-01-12T02:45:03.673Z,99.93
2023-01-12T02:46:03.642Z,99.93
2023-01-12T02:47:03.613Z,99.99
2023-01-12T02:48:03.607Z,99.99
2023-01-12T02:49:03.595Z,99.99
2023-01-12T02:50:03.676Z,99.99
2023-01-12T02:51:03.594Z,99.99
2023-01-12T02:52:03.537Z,99.99
2023-01-12T02:53:03.551Z,99.99
2023-01-12T02:54:03.501Z,99.99
2023-01-12T02:55:03.563Z,99.99
2023-01-12T02:56:03.592Z,99.99
2023-01-12T02:57:03.517Z,99.99
2023-01-12T02:58:03.469Z,99.99
2023-01-12T02:59:03.496Z,99.99
2023-01-12T03:00:03.471Z,99.99
2023-01-12T03:01:03.524Z,99.99
2023-01-12T03:02:03.432Z,99.99
2023-01-12T03:03:03.443Z,99.93
2023-01-12T03:04:03.382Z,99.82
2023-01-12T03:05:03.411Z,99.82
2023-01-12T03:06:03.369Z,99.72
2023-01-12T03:07:03.389Z,99.72
2023-01-12T03:08:03.457Z,99.62
2023-01-12T03:09:03.325Z,99.62
2023-01-12T03:10:03.307Z,99.62
2023-01-12T03:11:03.333Z,99.57
2023-01-12T03:12:03.255Z,99.05
2023-01-12T03:13:03.317Z,98.96
2023-01-12T03:14:03.314Z,99.05
2023-01-12T03:15:03.275Z,99.05
2023-01-12T03:16:03.250Z,98.96
2023-01-12T03:17:03.233Z,99.16
2023-01-12T03:18:03.183Z,99.16
2023-01-12T03:19:03.213Z,99.05
2023-01-12T03:20:03.289Z,99.26
2023-01-12T03:21:03.221Z,99.37
2023-01-12T03:22:03.156Z,99.47
2023-01-12T03:23:03.158Z,99.47
2023-01-12T03:24:03.126Z,99.57
2023-01-12T03:25:03.150Z,99.77
2023-01-12T03:26:03.145Z,99.88
2023-01-12T03:27:03.105Z,99.88
2023-01-12T03:28:03.092Z,99.77
2023-01-12T03:29:03.072Z,99.88
2023-01-12T03:30:03.028Z,99.67
2023-01-12T03:31:03.082Z,99.67
2023-01-12T03:32:03.121Z,99.67
2023-01-12T03:33:03.052Z,99.77
2023-01-12T03:34:03.028Z,99.88
2023-01-12T03:35:02.993Z,99.98
2023-01-12T03:36:02.971Z,99.98
2023-01-12T03:37:02.972Z,99.98
2023-01-12T03:38:03.041Z,99.99
2023-01-12T03:39:02.964Z,99.99
2023-01-12T03:40:02.915Z,99.99
2023-01-12T03:41:02.916Z,99.99
2023-01-12T03:42:02.863Z,99.99
2023-01-12T03:43:02.912Z,99.99
2023-01-12T03:44:02.909Z,99.99
2023-01-12T03:45:02.883Z,99.99
2023-01-12T03:46:02.838Z,99.99
2023-01-12T03:47:02.910Z,99.99
2023-01-12T03:48:02.819Z,99.99
2023-01-12T03:49:02.808Z,99.99
2023-01-12T03:50:03.017Z,99.99
2023-01-12T03:51:02.831Z,99.99
2023-01-12T03:52:02.757Z,99.99
2023-01-12T03:53:02.848Z,99.99
2023-01-12T03:54:02.746Z,99.99
2023-01-12T03:55:02.723Z,99.99
2023-01-12T03:56:02.787Z,99.99
2023-01-12T03:57:02.724Z,99.99
2023-01-12T03:58:02.673Z,99.99
2023-01-12T03:59:02.652Z,99.99
2023-01-12T04:00:02.654Z,99.99
2023-01-12T04:01:02.771Z,99.99
2023-01-12T04:02:02.666Z,99.99
2023-01-12T04:03:02.694Z,99.99
2023-01-12T04:04:02.569Z,99.99
2023-01-12T04:05:02.642Z,99.99
2023-01-12T04:06:02.569Z,99.99
2023-01-12T04:07:02.582Z,99.99
2023-01-12T04:08:02.578Z,99.99
2023-01-12T04:09:02.543Z,99.99
2023-01-12T04:10:02.492Z,99.99
2023-01-12T04:11:02.535Z,99.99
2023-01-12T04:12:02.538Z,99.99
2023-01-12T04:13:02.473Z,99.99
2023-01-12T04:14:02.517Z,99.99
2023-01-12T04:15:02.459Z,99.99
2023-01-12T04:16:02.476Z,99.99
2023-01-12T04:17:02.439Z,99.99
2023-01-12T04:18:02.439Z,99.99
2023-01-12T04:19:02.366Z,99.99
2023-01-12T04:20:02.533Z,99.99
2023-01-12T04:21:02.332Z,99.99
2023-01-12T04:22:02.396Z,99.99
2023-01-12T04:23:02.349Z,99.99
2023-01-12T04:24:02.334Z,99.99
2023-01-12T04:25:02.320Z,99.99
2023-01-12T04:26:02.356Z,99.99
2023-01-12T04:27:02.288Z,99.99
2023-01-12T04:28:02.286Z,99.99
2023-01-12T04:29:02.265Z,99.99
2023-01-12T04:30:02.295Z,99.99
2023-01-12T04:31:02.217Z,99.99
2023-01-12T04:32:02.351Z,99.99
2023-01-12T04:33:02.198Z,99.99
2023-01-12T04:34:02.205Z,99.99
2023-01-12T04:35:02.185Z,99.99
2023-01-12T04:36:02.235Z,99.99
2023-01-12T04:37:02.171Z,99.99
2023-01-12T04:38:02.307Z,99.99
2023-01-12T04:39:02.125Z,99.99
2023-01-12T04:40:02.149Z,99.99
2023-01-12T04:41:02.085Z,99.99
2023-01-12T04:42:02.090Z,99.99
2023-01-12T04:43:02.149Z,99.99
2023-01-12T04:44:02.140Z,99.99
2023-01-12T04:45:02.048Z,99.99
2023-01-12T04:46:02.071Z,99.99
2023-01-12T04:47:02.069Z,99.99
2023-01-12T04:48:02.022Z,99.99
2023-01-12T04:49:02.001Z,99.99
2023-01-12T04:50:02.087Z,99.99
2023-01-12T04:51:01.970Z,99.99
2023-01-12T04:52:02.008Z,99.99
2023-01-12T04:53:01.980Z,99.99
2023-01-12T04:54:01.945Z,99.99
2023-01-12T04:55:01.933Z,99.99
2023-01-12T04:56:02.783Z,99.99
2023-01-12T04:57:01.902Z,99.99
2023-01-12T04:58:01.930Z,99.99
2023-01-12T04:59:02.695Z,99.99
2023-01-12T05:00:01.858Z,99.99
2023-01-12T05:01:01.877Z,99.99
2023-01-12T05:02:02.007Z,99.99
2023-01-12T05:03:01.801Z,99.99
2023-01-12T05:04:01.891Z,99.99
2023-01-12T05:05:01.754Z,99.99
2023-01-12T05:06:01.779Z,99.99
2023-01-12T05:07:01.774Z,99.99
2023-01-12T05:08:01.804Z,99.99
2023-01-12T05:09:01.745Z,99.99
2023-01-12T05:10:01.777Z,99.99
2023-01-12T05:11:01.710Z,99.99
2023-01-12T05:12:01.719Z,99.99
2023-01-12T05:13:01.670Z,99.99
2023-01-12T05:14:01.700Z,99.99
2023-01-12T05:15:01.682Z,99.99
2023-01-12T05:16:01.642Z,99.99
2023-01-12T05:17:01.627Z,99.99
2023-01-12T05:18:01.645Z,99.99
2023-01-12T05:19:01.598Z,99.99
2023-01-12T05:20:01.662Z,99.99
2023-01-12T05:21:01.586Z,99.99
2023-01-12T05:22:01.587Z,99.99
2023-01-12T05:23:01.603Z,99.99
2023-01-12T05:24:01.570Z,99.99
2023-01-12T05:25:01.524Z,99.99
2023-01-12T05:26:01.584Z,99.99
2023-01-12T05:27:01.467Z,99.99
2023-01-12T05:28:01.519Z,99.99
2023-01-12T05:29:01.454Z,99.99
2023-01-12T05:30:01.453Z,99.99
2023-01-12T05:31:01.511Z,99.99
2023-01-12T05:32:01.615Z,99.99
2023-01-12T05:33:01.399Z,99.99
2023-01-12T05:34:01.435Z,99.99
2023-01-12T05:35:01.401Z,99.99
2023-01-12T05:36:01.400Z,99.99
2023-01-12T05:37:01.360Z,99.99
2023-01-12T05:38:01.432Z,99.99
2023-01-12T05:39:01.309Z,99.99
2023-01-12T05:40:01.387Z,99.99
2023-01-12T05:41:01.289Z,99.99
2023-01-12T05:42:01.317Z,99.99
2023-01-12T05:43:01.296Z,99.99
2023-01-12T05:44:01.317Z,99.99
2023-01-12T05:45:01.263Z,99.99
2023-01-12T05:46:01.304Z,99.99
2023-01-12T05:47:01.209Z,99.99
2023-01-12T05:48:01.218Z,99.99
2023-01-12T05:49:01.217Z,99.99
2023-01-12T05:50:01.268Z,99.99
2023-01-12T05:51:01.171Z,99.99
2023-01-12T05:52:01.205Z,99.99
2023-01-12T05:53:01.149Z,99.99
2023-01-12T05:54:01.153Z,99.99
2023-01-12T05:55:01.152Z,99.99
2023-01-12T05:56:01.171Z,99.99
2023-01-12T05:57:01.108Z,99.99
2023-01-12T05:58:01.117Z,99.99
2023-01-12T05:59:01.065Z,99.99
2023-01-12T06:00:01.089Z,99.99
2023-01-12T06:01:01.050Z,99.99
2023-01-12T06:02:01.218Z,99.99
2023-01-12T06:03:01.048Z,99.99
2023-01-12T06:04:01.094Z,99.99
2023-01-12T06:05:01.004Z,99.99
2023-01-12T06:06:00.995Z,99.99
2023-01-12T06:07:00.991Z,99.99
2023-01-12T06:08:00.998Z,99.99
2023-01-12T06:09:00.957Z,99.99
2023-01-12T06:10:00.984Z,99.99
2023-01-12T06:11:00.906Z,99.99
2023-01-12T06:12:00.945Z,99.99
2023-01-12T06:13:00.876Z,99.99
2023-01-12T06:14:00.975Z,99.99
2023-01-12T06:15:00.878Z,99.99
2023-01-12T06:16:00.959Z,99.99
2023-01-12T06:17:00.847Z,99.99
2023-01-12T06:18:00.865Z,99.99
2023-01-12T06:19:00.809Z,99.99
2023-01-12T06:20:00.947Z,99.99
2023-01-12T06:21:00.777Z,99.58
2023-01-12T06:22:00.779Z,99.99
2023-01-12T06:23:00.768Z,98.86
2023-01-12T06:24:00.759Z,99.11
2023-01-12T06:25:00.751Z,99.52
2023-01-12T06:26:00.811Z,99.93
2023-01-12T06:27:00.703Z,99.99
2023-01-12T06:28:00.734Z,99.99
2023-01-12T06:29:00.672Z,99.99
2023-01-12T06:30:00.699Z,99.99
2023-01-12T06:31:00.689Z,99.99
2023-01-12T06:32:00.687Z,99.99
2023-01-12T06:33:00.630Z,99.99
2023-01-12T06:34:00.676Z,99.99
2023-01-12T06:35:07.067Z,99.83
2023-01-12T06:36:01.602Z,99.52
2023-01-12T06:37:00.586Z,99.63
2023-01-12T06:38:00.628Z,99.73
2023-01-12T06:39:00.543Z,99.99
2023-01-12T06:40:00.600Z,99.99
2023-01-12T06:41:00.505Z,99.99
2023-01-12T06:42:00.524Z,99.99
2023-01-12T06:43:00.513Z,99.99
2023-01-12T06:44:00.549Z,99.99
2023-01-12T06:45:00.492Z,99.99
2023-01-12T06:46:00.543Z,99.99
2023-01-12T06:47:00.413Z,99.99
2023-01-12T06:48:00.495Z,99.99
2023-01-12T06:49:00.389Z,99.99
2023-01-12T06:50:00.548Z,99.99
2023-01-12T06:51:00.395Z,99.99
2023-01-12T06:52:00.413Z,99.99
2023-01-12T06:53:00.330Z,99.98
2023-01-12T06:54:00.359Z,99.88
2023-01-12T06:55:00.345Z,99.37
2023-01-12T06:56:00.436Z,99.88
2023-01-12T06:57:00.320Z,99.99
2023-01-12T06:58:00.326Z,99.67
2023-01-12T06:59:00.263Z,99.57
2023-01-12T07:00:00.310Z,99.77
2023-01-12T07:01:00.315Z,99.99
2023-01-12T07:02:00.457Z,99.99
2023-01-12T07:03:04.307Z,99.99
2023-01-12T07:04:00.219Z,99.99
2023-01-12T07:05:00.225Z,99.88
2023-01-12T07:06:00.228Z,99.88
2023-01-12T07:07:00.180Z,99.16
2023-01-12T07:08:00.219Z,99.47
2023-01-12T07:09:00.180Z,99.88
2023-01-12T07:10:00.188Z,99.99
2023-01-12T07:11:00.134Z,99.77
2023-01-12T07:12:00.139Z,99.37
2023-01-12T07:13:00.096Z,99.57
2023-01-12T07:14:00.256Z,99.88
2023-01-12T07:15:00.092Z,99.99
2023-01-12T07:16:00.189Z,99.99
2023-01-12T07:17:00.070Z,99.99
2023-01-12T07:18:00.077Z,99.99
2023-01-12T07:18:59.988Z,99.99
2023-01-12T07:20:00.072Z,99.99
2023-01-12T07:20:59.978Z,99.99
2023-01-12T07:21:59.998Z,99.99
2023-01-12T07:22:59.978Z,99.99
2023-01-12T07:23:59.969Z,99.99
2023-01-12T07:24:59.961Z,99.99
2023-01-12T07:26:00.058Z,99.99
2023-01-12T07:26:59.900Z,99.99
2023-01-12T07:27:59.939Z,99.99
2023-01-12T07:28:59.879Z,99.99
2023-01-12T07:29:59.888Z,99.99
2023-01-12T07:30:59.886Z,99.99
2023-01-12T07:31:59.888Z,99.99
2023-01-12T07:32:59.868Z,99.99
2023-01-12T07:33:59.879Z,99.99
2023-01-12T07:34:59.821Z,99.99
2023-01-12T07:35:59.848Z,99.99
2023-01-12T07:36:59.901Z,99.99
2023-01-12T07:37:59.911Z,99.99
2023-01-12T07:38:59.775Z,99.99
2023-01-12T07:39:59.791Z,99.99
2023-01-12T07:41:02.526Z,99.99
2023-01-12T07:42:02.843Z,99.99
2023-01-12T07:42:59.720Z,99.99
2023-01-12T07:43:59.826Z,99.99
2023-01-12T07:44:59.702Z,99.99
2023-01-12T07:45:59.708Z,99.99
2023-01-12T07:46:59.671Z,99.99
2023-01-12T07:47:59.694Z,99.99
2023-01-12T07:48:59.616Z,99.99
2023-01-12T07:51:28.788Z,99.99
2023-01-12T07:52:10.623Z,99.99
2023-01-12T07:53:10.623Z,99.99
2023-01-12T07:54:10.609Z,99.99
2023-01-12T07:55:10.639Z,99.99
2023-01-12T07:56:10.625Z,99.99
2023-01-12T07:57:10.609Z,99.99
2023-01-12T07:58:10.518Z,99.99
2023-01-12T07:59:10.560Z,99.99
2023-01-12T08:00:10.503Z,99.99
2023-01-12T08:01:10.619Z,99.99
2023-01-12T08:02:10.604Z,99.99
2023-01-12T08:03:10.498Z,99.99
2023-01-12T08:04:10.467Z,99.99
2023-01-12T08:05:10.548Z,99.99
2023-01-12T08:06:10.424Z,99.99
2023-01-12T08:07:10.527Z,99.99
2023-01-12T08:08:10.438Z,99.99
2023-01-12T08:09:10.442Z,99.99
2023-01-12T08:10:10.376Z,99.99
2023-01-12T08:11:10.426Z,99.99
2023-01-12T08:12:10.328Z,99.99
2023-01-12T08:13:10.375Z,99.99
2023-01-12T08:14:10.335Z,99.99
2023-01-12T08:15:10.332Z,99.99
2023-01-12T08:16:10.345Z,99.99
2023-01-12T08:17:10.348Z,99.99
2023-01-12T08:18:10.251Z,99.99
2023-01-12T08:19:10.395Z,99.99
2023-01-12T08:20:10.222Z,99.99
2023-01-12T08:21:10.233Z,99.99
2023-01-12T08:22:10.225Z,99.99
2023-01-12T08:23:10.225Z,99.99
2023-01-12T08:24:10.160Z,99.99
2023-01-12T08:25:10.298Z,99.99
2023-01-12T08:26:10.167Z,99.99
2023-01-12T08:27:10.153Z,99.99
2023-01-12T08:28:10.159Z,99.99
2023-01-12T08:29:12.164Z,99.99
2023-01-12T08:30:10.085Z,99.99
2023-01-12T08:31:10.285Z,99.99
2023-01-12T08:32:10.075Z,99.99
2023-01-12T08:33:10.071Z,99.99
2023-01-12T08:34:10.099Z,99.99
2023-01-12T08:35:10.046Z,99.99
2023-01-12T08:36:10.038Z,99.99
2023-01-12T08:37:10.091Z,99.99
2023-01-12T08:38:09.986Z,99.99
2023-01-12T08:39:10.015Z,99.99
2023-01-12T08:40:09.941Z,99.99
2023-01-12T08:41:09.976Z,99.99
2023-01-12T08:42:09.952Z,99.99
2023-01-12T08:43:09.956Z,99.99
2023-01-12T08:44:09.936Z,99.99
2023-01-12T08:45:09.942Z,99.99
2023-01-12T08:46:09.880Z,99.99
2023-01-12T08:47:09.912Z,99.99
2023-01-12T08:48:09.842Z,99.99
2023-01-12T08:49:09.888Z,99.99
2023-01-12T08:50:09.848Z,99.99
2023-01-12T08:51:09.832Z,99.99
2023-01-12T08:52:09.812Z,99.99
2023-01-12T08:53:09.831Z,99.99
2023-01-12T08:54:09.760Z,99.99
2023-01-12T08:55:09.799Z,99.99
2023-01-12T08:56:10.556Z,99.99
2023-01-12T08:57:09.776Z,99.99
2023-01-12T08:58:09.709Z,99.99
2023-01-12T08:59:09.757Z,99.99
2023-01-12T09:00:09.681Z,99.99
2023-01-12T09:01:10.059Z,99.99
2023-01-12T09:02:09.823Z,99.99
2023-01-12T09:03:09.672Z,99.99
2023-01-12T09:04:09.657Z,99.99
2023-01-12T09:05:09.670Z,99.99
2023-01-12T09:06:09.604Z,99.99
2023-01-12T09:07:09.677Z,99.99
2023-01-12T09:08:09.574Z,99.99
2023-01-12T09:09:09.593Z,99.99
2023-01-12T09:10:09.582Z,99.99
2023-01-12T09:11:09.588Z,99.99
2023-01-12T09:12:09.531Z,99.99
2023-01-12T09:13:09.711Z,99.99
2023-01-12T09:14:09.534Z,99.99
2023-01-12T09:15:09.526Z,99.99
2023-01-12T09:16:13.540Z,99.99
2023-01-12T09:17:09.522Z,99.99
2023-01-12T09:18:09.448Z,99.99
2023-01-12T09:19:09.647Z,99.99
2023-01-12T09:20:09.457Z,99.99
2023-01-12T09:21:09.442Z,99.99
2023-01-12T09:22:09.419Z,99.99
2023-01-12T09:23:09.414Z,99.99
2023-01-12T09:24:09.407Z,99.99
2023-01-12T09:25:09.703Z,99.99
2023-01-12T09:26:09.335Z,99.99
2023-01-12T09:27:09.384Z,99.99
2023-01-12T09:28:09.344Z,99.99
2023-01-12T09:29:09.345Z,99.99
2023-01-12T09:30:09.281Z,99.99
2023-01-12T09:31:09.348Z,99.99
2023-01-12T09:32:09.264Z,99.99
2023-01-12T09:33:09.274Z,99.99
2023-01-12T09:34:09.291Z,99.99
2023-01-12T09:35:09.311Z,99.99
2023-01-12T09:36:09.248Z,99.99
2023-01-12T09:37:09.367Z,99.99
2023-01-12T09:38:09.185Z,99.99
2023-01-12T09:39:12.786Z,99.99
2023-01-12T09:40:10.161Z,99.99
2023-01-12T09:41:09.485Z,99.99
2023-01-12T09:42:09.160Z,99.99
2023-01-12T09:43:09.173Z,99.99
2023-01-12T09:44:09.127Z,99.99
2023-01-12T09:45:09.152Z,99.99
2023-01-12T09:46:09.107Z,99.99
2023-01-12T09:47:09.103Z,99.99
2023-01-12T09:48:09.063Z,99.99
2023-01-12T09:49:09.083Z,99.99
2023-01-12T09:50:10.205Z,99.99
2023-01-12T09:51:09.025Z,99.99
2023-01-12T09:52:09.014Z,99.99
2023-01-12T09:53:09.037Z,99.99
2023-01-12T09:54:08.975Z,99.99
2023-01-12T09:55:09.034Z,99.99
2023-01-12T09:56:08.936Z,99.99
2023-01-12T09:57:10.880Z,99.99
2023-01-12T09:58:08.958Z,99.99
2023-01-12T09:59:08.980Z,99.99
2023-01-12T10:00:08.885Z,99.99
2023-01-12T10:01:10.710Z,99.99
2023-01-12T10:02:09.986Z,99.99
2023-01-12T10:03:08.920Z,99.99
2023-01-12T10:04:08.847Z,99.99
2023-01-12T10:05:08.859Z,99.99
2023-01-12T10:06:08.857Z,99.99
2023-01-12T10:07:08.958Z,99.99
2023-01-12T10:08:08.770Z,99.99
2023-01-12T10:09:08.785Z,99.99
2023-01-12T10:10:08.769Z,99.99
2023-01-12T10:11:08.751Z,99.99
2023-01-12T10:12:08.759Z,99.99
2023-01-12T10:13:08.785Z,99.99
2023-01-12T10:14:08.686Z,99.99
2023-01-12T10:15:08.697Z,99.99
2023-01-12T10:16:08.702Z,99.99
2023-01-12T10:17:08.706Z,99.99
2023-01-12T10:18:08.624Z,99.99
2023-01-12T10:19:09.063Z,99.99
2023-01-12T10:20:08.631Z,99.99
2023-01-12T10:21:08.617Z,99.99
2023-01-12T10:22:09.047Z,99.99
2023-01-12T10:23:08.600Z,99.99
2023-01-12T10:24:08.573Z,99.99
2023-01-12T10:25:08.702Z,99.99
2023-01-12T10:26:08.524Z,99.99
2023-01-12T10:27:08.563Z,99.99
2023-01-12T10:28:08.497Z,99.99
2023-01-12T10:29:08.511Z,99.99
2023-01-12T10:30:08.501Z,99.99
2023-01-12T10:31:08.554Z,99.99
2023-01-12T10:32:08.451Z,99.99
2023-01-12T10:33:08.487Z,99.99
2023-01-12T10:34:08.443Z,99.99
2023-01-12T10:35:08.418Z,99.99
2023-01-12T10:36:08.405Z,99.99
2023-01-12T10:37:08.548Z,99.99
2023-01-12T10:38:09.308Z,99.99
